createdAt,value
2019-03-22T00:01:03.029Z,98939.19
2019-03-22T00:03:31.408Z,98937.05
2019-03-22T00:05:59.799Z,98933.20
2019-03-22T00:08:28.215Z,98935.74
2019-03-22T00:10:56.593Z,98929.77
2019-03-22T00:13:24.978Z,98925.02
2019-03-22T00:15:53.381Z,98930.98
2019-03-22T00:18:21.870Z,98931.39
2019-03-22T00:20:50.260Z,98927.05
2019-03-22T00:23:18.654Z,98933.87
2019-03-22T00:25:47.035Z,98932.52
2019-03-22T00:28:15.481Z,98932.02
2019-03-22T00:30:43.880Z,98942.18
2019-03-22T00:33:12.254Z,98919.70
2019-03-22T00:35:40.635Z,98942.05
2019-03-22T00:38:09.020Z,98938.64
2019-03-22T00:40:37.419Z,98939.53
2019-03-22T00:43:05.824Z,98933.94
2019-03-22T00:45:34.265Z,98933.96
2019-03-22T00:48:02.670Z,98925.00
2019-03-22T00:50:31.046Z,98922.38
2019-03-22T00:52:59.433Z,98919.28
2019-03-22T00:55:27.837Z,98921.35
2019-03-22T00:57:56.220Z,98919.62
2019-03-22T01:00:24.598Z,98918.36
2019-03-22T01:02:53.009Z,98917.08
2019-03-22T01:05:21.408Z,98914.10
2019-03-22T01:07:49.837Z,98904.63
2019-03-22T01:10:18.251Z,98913.54
2019-03-22T01:12:46.634Z,98910.98
2019-03-22T01:15:15.563Z,98909.30
2019-03-22T01:17:43.946Z,98904.98
2019-03-22T01:20:13.074Z,98904.11
2019-03-22T01:22:41.537Z,98901.55
2019-03-22T01:25:10.763Z,98903.21
2019-03-22T01:27:40.668Z,98902.80
2019-03-22T01:30:14.763Z,98898.95
2019-03-22T01:32:43.164Z,98901.88
2019-03-22T01:35:11.622Z,98902.20
2019-03-22T01:37:40.010Z,98900.44
2019-03-22T01:40:10.126Z,98885.70
2019-03-22T01:42:38.661Z,98902.92
2019-03-22T01:45:12.171Z,98899.89
2019-03-22T01:47:40.567Z,98876.59
2019-03-22T01:50:16.958Z,98898.94
2019-03-22T01:52:45.345Z,98904.03
2019-03-22T01:55:13.822Z,98904.36
2019-03-22T01:57:52.346Z,98903.84
2019-03-22T02:00:14.560Z,98904.62
2019-03-22T02:02:42.948Z,98905.84
2019-03-22T02:05:11.415Z,98895.94
2019-03-22T02:07:39.795Z,98886.78
2019-03-22T02:10:10.523Z,98902.28
2019-03-22T02:12:39.147Z,98899.70
2019-03-22T02:15:12.134Z,98888.56
2019-03-22T02:17:40.520Z,98887.77
2019-03-22T02:20:10.482Z,98889.50
2019-03-22T02:22:38.966Z,98887.72
2019-03-22T02:25:08.424Z,98885.95
2019-03-22T02:27:36.877Z,98876.02
2019-03-22T02:30:11.267Z,98870.81
2019-03-22T02:32:42.597Z,98871.20
2019-03-22T02:35:26.934Z,98864.36
2019-03-22T02:37:41.321Z,98861.33
2019-03-22T02:40:11.638Z,98861.23
2019-03-22T02:42:40.087Z,98862.55
2019-03-22T02:45:10.939Z,98858.67
2019-03-22T02:47:39.332Z,98861.57
2019-03-22T02:50:18.218Z,98867.10
2019-03-22T02:52:40.888Z,98863.33
2019-03-22T02:55:10.320Z,98859.02
2019-03-22T02:57:38.776Z,98858.11
2019-03-22T03:00:12.813Z,98857.31
2019-03-22T03:02:41.192Z,98855.21
2019-03-22T03:05:10.517Z,98856.80
2019-03-22T03:07:38.913Z,98859.30
2019-03-22T03:10:10.248Z,98856.61
2019-03-22T03:12:38.598Z,98854.39
2019-03-22T03:15:09.814Z,98855.08
2019-03-22T03:17:38.206Z,98855.35
2019-03-22T03:20:09.452Z,98858.70
2019-03-22T03:22:39.497Z,98856.57
2019-03-22T03:25:09.417Z,98854.44
2019-03-22T03:27:38.254Z,98852.73
2019-03-22T03:30:15.941Z,98861.22
2019-03-22T03:32:44.325Z,98864.99
2019-03-22T03:35:13.156Z,98869.22
2019-03-22T03:37:41.584Z,98865.81
2019-03-22T03:40:11.452Z,98861.16
2019-03-22T03:42:39.831Z,98862.44
2019-03-22T03:45:27.865Z,98855.59
2019-03-22T03:47:56.243Z,98853.44
2019-03-22T03:50:24.633Z,98855.48
2019-03-22T03:52:53.012Z,98852.89
2019-03-22T03:55:21.411Z,98854.47
2019-03-22T03:57:49.802Z,98862.13
2019-03-22T04:00:18.189Z,98856.08
2019-03-22T04:02:46.569Z,98859.39
2019-03-22T04:05:15.008Z,98858.08
2019-03-22T04:07:43.341Z,98860.67
2019-03-22T04:10:11.957Z,98861.91
2019-03-22T04:12:41.949Z,98859.39
2019-03-22T04:15:10.573Z,98854.31
2019-03-22T04:17:38.964Z,98864.89
2019-03-22T04:20:07.874Z,98862.34
2019-03-22T04:22:36.583Z,98855.14
2019-03-22T04:25:07.174Z,98862.40
2019-03-22T04:27:35.556Z,98864.92
2019-03-22T04:30:05.771Z,98862.70
2019-03-22T04:32:34.157Z,98862.14
2019-03-22T04:35:02.673Z,98859.98
2019-03-22T04:37:31.067Z,98868.45
2019-03-22T04:39:59.509Z,98865.78
2019-03-22T04:42:27.885Z,98856.36
2019-03-22T04:44:56.267Z,98868.59
2019-03-22T04:47:26.088Z,98867.70
2019-03-22T04:49:55.623Z,98880.45
2019-03-22T04:52:26.553Z,98883.72
2019-03-22T04:54:57.971Z,98894.21
2019-03-22T04:57:28.003Z,98883.94
2019-03-22T04:59:58.417Z,98888.23
2019-03-22T05:02:27.976Z,98890.91
2019-03-22T05:04:57.022Z,98889.22
2019-03-22T05:07:25.491Z,98890.95
2019-03-22T05:09:54.763Z,98891.02
2019-03-22T05:12:25.084Z,98896.58
2019-03-22T05:14:54.415Z,98893.74
2019-03-22T05:17:23.255Z,98896.72
2019-03-22T05:19:54.676Z,98890.34
2019-03-22T05:22:25.233Z,98896.72
2019-03-22T05:24:56.159Z,98895.02
2019-03-22T05:27:25.683Z,98893.74
2019-03-22T05:29:56.273Z,98891.30
2019-03-22T05:32:24.727Z,98893.48
2019-03-22T05:34:53.115Z,98888.45
2019-03-22T05:37:21.566Z,98887.66
2019-03-22T05:39:49.944Z,98895.45
2019-03-22T05:42:18.371Z,98889.14
2019-03-22T05:44:46.757Z,98885.34
2019-03-22T05:47:15.138Z,98887.47
2019-03-22T05:49:43.946Z,98884.98
2019-03-22T05:52:12.325Z,98889.33
2019-03-22T05:54:40.711Z,98889.91
2019-03-22T05:57:13.619Z,98892.62
2019-03-22T05:59:42.820Z,98889.44
2019-03-22T06:02:09.306Z,98889.16
2019-03-22T06:04:37.688Z,98890.09
2019-03-22T06:07:06.072Z,98896.63
2019-03-22T06:09:34.455Z,98900.55
2019-03-22T06:12:02.839Z,98909.95
2019-03-22T06:14:31.298Z,98908.22
2019-03-22T06:16:59.695Z,98904.78
2019-03-22T06:19:28.078Z,98913.33
2019-03-22T06:21:56.453Z,98910.83
2019-03-22T06:24:24.847Z,98908.27
2019-03-22T06:26:53.498Z,98903.16
2019-03-22T06:29:21.909Z,98902.77
2019-03-22T06:31:50.293Z,98909.19
2019-03-22T06:34:18.727Z,98905.41
2019-03-22T06:36:47.117Z,98900.41
2019-03-22T06:39:15.502Z,98904.38
2019-03-22T06:41:43.886Z,98905.38
2019-03-22T06:44:12.279Z,98903.77
2019-03-22T06:46:40.658Z,98901.34
2019-03-22T06:49:28.469Z,98910.00
2019-03-22T06:51:56.847Z,98910.98
2019-03-22T06:54:31.517Z,98910.71
2019-03-22T06:56:55.346Z,98918.08
2019-03-22T06:59:23.785Z,98882.12
2019-03-22T07:01:52.167Z,98916.97
2019-03-22T07:04:20.559Z,98907.68
2019-03-22T07:06:48.947Z,98914.17
2019-03-22T07:09:17.329Z,98909.14
2019-03-22T07:11:45.739Z,98904.95
2019-03-22T07:14:14.129Z,98893.96
2019-03-22T07:16:42.497Z,98902.60
2019-03-22T07:19:10.884Z,98895.02
2019-03-22T07:21:39.270Z,98898.55
2019-03-22T07:24:07.712Z,98902.97
2019-03-22T07:26:36.167Z,98899.70
2019-03-22T07:29:04.852Z,98912.63
2019-03-22T07:31:35.742Z,98915.70
2019-03-22T07:34:03.376Z,98917.13
2019-03-22T07:36:31.726Z,98923.22
2019-03-22T07:39:00.135Z,98919.06
2019-03-22T07:41:28.530Z,98925.95
2019-03-22T07:43:56.930Z,98920.44
2019-03-22T07:46:25.310Z,98921.38
2019-03-22T07:48:55.674Z,98915.90
2019-03-22T07:51:24.066Z,98915.17
2019-03-22T07:53:52.435Z,98924.69
2019-03-22T07:56:20.818Z,98878.78
2019-03-22T07:58:49.194Z,98908.97
2019-03-22T08:01:17.587Z,98918.85
2019-03-22T08:03:45.966Z,98911.22
2019-03-22T08:06:14.348Z,98902.77
2019-03-22T08:08:42.731Z,98903.73
2019-03-22T08:11:11.123Z,98897.75
2019-03-22T08:13:39.503Z,98904.23
2019-03-22T08:16:07.890Z,98911.59
2019-03-22T08:18:36.440Z,98901.34
2019-03-22T08:21:04.864Z,98900.96
2019-03-22T08:23:33.249Z,98903.13
2019-03-22T08:26:01.686Z,98915.97
2019-03-22T08:28:30.106Z,98916.42
2019-03-22T08:30:58.475Z,98913.42
2019-03-22T08:33:26.845Z,98910.84
2019-03-22T08:35:55.241Z,98907.82
2019-03-22T08:38:23.611Z,98901.36
2019-03-22T08:40:52.031Z,98894.01
2019-03-22T08:43:20.379Z,98895.27
2019-03-22T08:45:48.768Z,98897.37
2019-03-22T08:48:17.153Z,98894.27
2019-03-22T08:50:45.543Z,98885.64
2019-03-22T08:53:13.924Z,98886.48
2019-03-22T08:55:42.315Z,98889.88
2019-03-22T08:58:10.718Z,98891.53
2019-03-22T09:00:39.942Z,98894.49
2019-03-22T09:03:08.520Z,98894.05
2019-03-22T09:05:36.925Z,98900.88
2019-03-22T09:08:05.465Z,98902.01
2019-03-22T09:10:33.900Z,98902.35
2019-03-22T09:13:02.261Z,98898.27
2019-03-22T09:15:40.620Z,98898.66
2019-03-22T09:18:00.754Z,98891.27
2019-03-22T09:20:29.159Z,98886.36
2019-03-22T09:22:57.555Z,98883.63
2019-03-22T09:25:25.918Z,98883.08
2019-03-22T09:27:54.292Z,98885.17
2019-03-22T09:30:22.682Z,98879.00
2019-03-22T09:32:51.121Z,98881.52
2019-03-22T09:35:19.527Z,98878.94
2019-03-22T09:37:47.915Z,98881.88
2019-03-22T09:40:16.308Z,98882.58
2019-03-22T09:42:44.677Z,98875.67
2019-03-22T09:45:14.428Z,98873.04
2019-03-22T09:47:42.921Z,98869.52
2019-03-22T09:50:12.944Z,98868.93
2019-03-22T09:52:42.618Z,98867.95
2019-03-22T09:55:13.853Z,98866.13
2019-03-22T09:57:41.286Z,98862.64
2019-03-22T10:00:15.690Z,98861.81
2019-03-22T10:02:44.020Z,98854.42
2019-03-22T10:05:12.406Z,98857.30
2019-03-22T10:07:40.818Z,98851.93
2019-03-22T10:10:09.349Z,98856.47
2019-03-22T10:12:37.709Z,98846.88
2019-03-22T10:15:07.245Z,98842.22
2019-03-22T10:17:35.711Z,98838.31
2019-03-22T10:20:06.127Z,98832.56
2019-03-22T10:22:34.529Z,98830.42
2019-03-22T10:25:03.192Z,98833.86
2019-03-22T10:27:31.880Z,98831.19
2019-03-22T10:30:00.440Z,98823.39
2019-03-22T10:32:28.771Z,98815.98
2019-03-22T10:34:57.147Z,98818.67
2019-03-22T10:37:25.585Z,98814.69
2019-03-22T10:39:53.926Z,98811.89
2019-03-22T10:42:22.334Z,98812.58
2019-03-22T10:44:50.817Z,98815.53
2019-03-22T10:47:19.356Z,98811.06
2019-03-22T10:49:48.251Z,98807.02
2019-03-22T10:52:16.772Z,98806.59
2019-03-22T10:54:45.289Z,98804.39
2019-03-22T10:57:13.687Z,98803.55
2019-03-22T10:59:42.086Z,98791.17
2019-03-22T11:02:10.827Z,98796.13
2019-03-22T11:04:39.233Z,98795.40
2019-03-22T11:07:07.718Z,98790.65
2019-03-22T11:09:36.093Z,98769.85
2019-03-22T11:12:12.071Z,98784.26
2019-03-22T11:14:34.863Z,98787.03
2019-03-22T11:17:03.324Z,98784.44
2019-03-22T11:19:31.702Z,98782.92
2019-03-22T11:22:00.096Z,98788.00
2019-03-22T11:24:28.493Z,98783.67
2019-03-22T11:26:56.883Z,98785.52
2019-03-22T11:29:25.255Z,98780.13
2019-03-22T11:31:53.663Z,98782.97
2019-03-22T11:34:22.046Z,98781.77
2019-03-22T11:36:50.444Z,98784.70
2019-03-22T11:39:18.821Z,98780.89
2019-03-22T11:41:47.239Z,98774.90
2019-03-22T11:44:15.624Z,98767.41
2019-03-22T11:46:44.013Z,98763.95
2019-03-22T11:49:12.715Z,98764.34
2019-03-22T11:51:41.096Z,98766.54
2019-03-22T11:54:09.494Z,98758.36
2019-03-22T11:56:37.942Z,98750.86
2019-03-22T11:59:06.334Z,98746.90
2019-03-22T12:01:34.727Z,98730.33
2019-03-22T12:04:03.135Z,98745.06
2019-03-22T12:06:31.499Z,98742.28
2019-03-22T12:08:59.964Z,98735.41
2019-03-22T12:11:28.348Z,98734.14
2019-03-22T12:13:56.741Z,98734.96
2019-03-22T12:16:25.132Z,98735.17
2019-03-22T12:18:53.525Z,98729.09
2019-03-22T12:21:21.990Z,98727.54
2019-03-22T12:23:50.405Z,98718.48
2019-03-22T12:26:18.805Z,98716.91
2019-03-22T12:28:47.200Z,98716.17
2019-03-22T12:31:15.628Z,98715.55
2019-03-22T12:33:44.018Z,98705.00
2019-03-22T12:36:12.423Z,98699.00
2019-03-22T12:38:40.816Z,98701.56
2019-03-22T12:41:10.252Z,98697.91
2019-03-22T12:43:38.646Z,98691.02
2019-03-22T12:46:07.023Z,98689.81
2019-03-22T12:48:35.414Z,98688.47
2019-03-22T12:51:03.871Z,98690.47
2019-03-22T12:53:32.265Z,98683.58
2019-03-22T12:56:00.649Z,98680.88
2019-03-22T12:58:29.091Z,98678.95
2019-03-22T13:00:57.480Z,98670.23
2019-03-22T13:03:25.955Z,98668.15
2019-03-22T13:05:54.360Z,98670.08
2019-03-22T13:08:22.750Z,98667.60
2019-03-22T13:10:51.136Z,98664.03
2019-03-22T13:13:19.546Z,98660.84
2019-03-22T13:15:47.923Z,98661.45
2019-03-22T13:18:16.325Z,98655.78
2019-03-22T13:20:44.721Z,98653.57
2019-03-22T13:23:13.129Z,98654.78
2019-03-22T13:25:41.526Z,98651.21
2019-03-22T13:28:09.919Z,98645.19
2019-03-22T13:30:38.381Z,98646.03
2019-03-22T13:33:06.936Z,98644.73
2019-03-22T13:35:35.362Z,98647.97
2019-03-22T13:38:04.666Z,98645.42
2019-03-22T13:40:33.131Z,98646.11
2019-03-22T13:43:01.567Z,98640.22
2019-03-22T13:45:30.082Z,98646.78
2019-03-22T13:47:58.551Z,98640.23
2019-03-22T13:50:26.951Z,98635.86
2019-03-22T13:52:56.267Z,98634.31
2019-03-22T13:55:24.675Z,98630.23
2019-03-22T13:57:53.103Z,98628.79
2019-03-22T14:00:21.672Z,98621.72
2019-03-22T14:02:50.077Z,98620.33
2019-03-22T14:05:18.541Z,98616.28
2019-03-22T14:07:46.950Z,98599.51
2019-03-22T14:10:32.954Z,98618.83
2019-03-22T14:13:02.768Z,98611.91
2019-03-22T14:15:31.299Z,98610.13
2019-03-22T14:17:59.991Z,98604.02
2019-03-22T14:20:28.468Z,98605.61
2019-03-22T14:22:56.864Z,98603.75
2019-03-22T14:25:25.327Z,98606.17
2019-03-22T14:27:54.077Z,98600.25
2019-03-22T14:30:22.471Z,98599.16
2019-03-22T14:32:50.868Z,98600.00
2019-03-22T14:35:19.262Z,98595.90
2019-03-22T14:37:47.650Z,98597.33
2019-03-22T14:40:16.193Z,98591.05
2019-03-22T14:42:44.578Z,98593.78
2019-03-22T14:45:13.217Z,98587.25
2019-03-22T14:47:41.659Z,98586.03
2019-03-22T14:50:10.307Z,98584.37
2019-03-22T14:52:38.696Z,98580.32
2019-03-22T14:55:07.256Z,98576.41
2019-03-22T14:57:35.653Z,98585.17
2019-03-22T15:00:09.961Z,98577.53
2019-03-22T15:02:38.380Z,98573.80
2019-03-22T15:05:07.050Z,98576.22
2019-03-22T15:07:35.462Z,98582.80
2019-03-22T15:10:05.096Z,98580.72
2019-03-22T15:12:33.480Z,98576.80
2019-03-22T15:15:15.804Z,98572.45
2019-03-22T15:17:48.308Z,98571.59
2019-03-22T15:20:27.415Z,98563.29
2019-03-22T15:22:57.446Z,98565.84
2019-03-22T15:25:39.760Z,98576.69
2019-03-22T15:28:25.916Z,98574.20
2019-03-22T15:31:12.268Z,98571.84
2019-03-22T15:36:23.750Z,98564.53
2019-03-22T15:38:56.608Z,98557.17
2019-03-22T15:41:25.072Z,98562.86
2019-03-22T15:43:53.500Z,98554.34
2019-03-22T15:46:21.875Z,98557.11
2019-03-22T15:48:50.261Z,98555.86
2019-03-22T15:51:18.662Z,98558.16
2019-03-22T15:53:47.055Z,98556.39
2019-03-22T15:56:15.451Z,98556.14
2019-03-22T15:58:43.842Z,98563.80
2019-03-22T16:01:12.301Z,98557.15
2019-03-22T16:03:44.349Z,98555.97
2019-03-22T16:06:10.798Z,98554.54
2019-03-22T16:08:39.189Z,98557.93
2019-03-22T16:11:07.584Z,98553.23
2019-03-22T16:13:36.086Z,98556.34
2019-03-22T16:16:04.570Z,98558.95
2019-03-22T16:18:32.960Z,98557.05
2019-03-22T16:21:01.369Z,98559.59
2019-03-22T16:23:30.717Z,98553.07
2019-03-22T16:25:59.100Z,98555.68
2019-03-22T16:28:27.496Z,98557.94
2019-03-22T16:30:55.885Z,98554.02
2019-03-22T16:33:24.278Z,98554.84
2019-03-22T16:35:52.684Z,98546.96
2019-03-22T16:38:21.076Z,98552.88
2019-03-22T16:40:49.479Z,98558.97
2019-03-22T16:43:17.865Z,98557.23
2019-03-22T16:45:46.254Z,98556.56
2019-03-22T16:48:14.649Z,98556.38
2019-03-22T16:50:43.098Z,98557.50
2019-03-22T16:53:11.552Z,98556.83
2019-03-22T16:55:40.010Z,98557.75
2019-03-22T16:58:08.517Z,98556.27
2019-03-22T17:00:37.039Z,98553.87
2019-03-22T17:03:06.688Z,98553.80
2019-03-22T17:05:35.209Z,98548.86
2019-03-22T17:08:03.650Z,98556.42
2019-03-22T17:10:32.031Z,98552.24
2019-03-22T17:13:00.416Z,98525.17
2019-03-22T17:15:28.816Z,98548.34
2019-03-22T17:17:57.213Z,98548.66
2019-03-22T17:20:25.595Z,98541.52
2019-03-22T17:22:53.991Z,98541.40
2019-03-22T17:25:22.371Z,98542.12
2019-03-22T17:27:50.756Z,98540.70
2019-03-22T17:30:19.415Z,98544.02
2019-03-22T17:32:47.817Z,98550.30
2019-03-22T17:35:16.272Z,98545.39
2019-03-22T17:37:44.658Z,98555.19
2019-03-22T17:40:13.454Z,98550.27
2019-03-22T17:42:41.842Z,98554.02
2019-03-22T17:45:13.227Z,98555.94
2019-03-22T17:47:41.684Z,98557.00
2019-03-22T17:50:12.513Z,98547.70
2019-03-22T17:52:40.898Z,98555.18
2019-03-22T17:55:10.609Z,98558.28
2019-03-22T17:57:39.053Z,98557.95
2019-03-22T18:00:10.092Z,98555.16
2019-03-22T18:02:39.473Z,98558.77
2019-03-22T18:05:10.012Z,98556.80
2019-03-22T18:07:38.467Z,98557.42
2019-03-22T18:10:12.160Z,98553.73
2019-03-22T18:12:40.562Z,98562.09
2019-03-22T18:15:13.047Z,98560.57
2019-03-22T18:17:44.674Z,98563.28
2019-03-22T18:20:14.887Z,98556.92
2019-03-22T18:22:43.261Z,98564.38
2019-03-22T18:25:11.918Z,98560.17
2019-03-22T18:27:40.303Z,98565.03
2019-03-22T18:30:17.781Z,98566.83
2019-03-22T18:32:47.693Z,98565.69
2019-03-22T18:35:16.295Z,98571.03
2019-03-22T18:37:45.640Z,98571.19
2019-03-22T18:40:15.426Z,98564.42
2019-03-22T18:42:43.834Z,98562.09
2019-03-22T18:45:13.830Z,98568.20
2019-03-22T18:47:43.171Z,98571.33
2019-03-22T18:50:12.599Z,98576.55
2019-03-22T18:52:40.979Z,98573.16
2019-03-22T18:55:09.545Z,98565.91
2019-03-22T18:57:37.941Z,98572.88
2019-03-22T19:00:12.026Z,98577.83
2019-03-22T19:02:40.418Z,98572.36
2019-03-22T19:05:09.066Z,98567.36
2019-03-22T19:07:37.456Z,98570.08
2019-03-22T19:10:08.773Z,98564.62
2019-03-22T19:12:37.186Z,98567.77
2019-03-22T19:15:09.121Z,98567.31
2019-03-22T19:17:37.645Z,98569.45
2019-03-22T19:20:09.928Z,98564.37
2019-03-22T19:22:38.374Z,98567.52
2019-03-22T19:25:07.902Z,98568.87
2019-03-22T19:27:36.322Z,98565.51
2019-03-22T19:30:07.526Z,98570.69
2019-03-22T19:32:35.955Z,98563.41
2019-03-22T19:35:06.079Z,98557.45
2019-03-22T19:37:34.469Z,98559.30
2019-03-22T19:40:03.334Z,98562.85
2019-03-22T19:42:31.730Z,98563.79
2019-03-22T19:45:00.161Z,98562.63
2019-03-22T19:47:28.679Z,98568.77
2019-03-22T19:49:57.068Z,98567.17
2019-03-22T19:52:25.466Z,98571.96
2019-03-22T19:54:53.903Z,98571.63
2019-03-22T19:57:22.300Z,98574.31
2019-03-22T19:59:50.709Z,98574.77
2019-03-22T20:02:19.178Z,98574.43
2019-03-22T20:04:53.392Z,98547.54
2019-03-22T20:07:27.080Z,98544.20
2019-03-22T20:09:53.196Z,98553.68
2019-03-22T20:12:21.579Z,98574.72
2019-03-22T20:14:49.979Z,98579.61
2019-03-22T20:17:18.387Z,98572.36
2019-03-22T20:19:46.788Z,98575.05
2019-03-22T20:22:15.184Z,98577.75
2019-03-22T20:24:43.571Z,98577.42
2019-03-22T20:27:11.971Z,98581.84
2019-03-22T20:29:40.354Z,98578.93
2019-03-22T20:32:08.745Z,98585.92
2019-03-22T20:34:37.152Z,98583.38
2019-03-22T20:37:05.538Z,98581.77
2019-03-22T20:39:36.957Z,98584.43
2019-03-22T20:42:05.361Z,98587.98
2019-03-22T20:44:34.349Z,98587.23
2019-03-22T20:47:02.828Z,98596.73
2019-03-22T20:49:31.226Z,98588.55
2019-03-22T20:51:59.607Z,98591.58
2019-03-22T20:54:27.988Z,98592.52
2019-03-22T20:56:56.382Z,98590.06
2019-03-22T20:59:24.765Z,98585.91
2019-03-22T21:01:53.162Z,98591.14
2019-03-22T21:04:21.560Z,98587.73
2019-03-22T21:06:50.860Z,98587.84
2019-03-22T21:09:19.253Z,98585.35
2019-03-22T21:11:47.660Z,98591.44
2019-03-22T21:14:16.058Z,98592.36
2019-03-22T21:16:44.461Z,98593.27
2019-03-22T21:19:12.842Z,98595.04
2019-03-22T21:21:41.228Z,98590.01
2019-03-22T21:24:09.610Z,98595.64
2019-03-22T21:26:38.875Z,98593.52
2019-03-22T21:29:07.265Z,98591.84
2019-03-22T21:31:35.663Z,98592.73
2019-03-22T21:34:05.111Z,98590.66
2019-03-22T21:36:34.472Z,98583.37
2019-03-22T21:39:04.242Z,98588.53
2019-03-22T21:41:32.637Z,98591.98
2019-03-22T21:44:01.042Z,98591.98
2019-03-22T21:46:29.435Z,98588.11
2019-03-22T21:48:58.745Z,98588.61
2019-03-22T21:51:27.118Z,98588.24
2019-03-22T21:53:55.491Z,98586.16
2019-03-22T21:56:23.874Z,98581.06
2019-03-22T21:58:54.188Z,98558.86
2019-03-22T22:01:22.573Z,98585.42
2019-03-22T22:03:50.954Z,98582.45
2019-03-22T22:06:19.342Z,98573.48
2019-03-22T22:08:47.728Z,98569.23
2019-03-22T22:11:16.109Z,98571.89
2019-03-22T22:13:44.504Z,98582.22
2019-03-22T22:16:13.858Z,98574.08
2019-03-22T22:18:42.244Z,98570.27
2019-03-22T22:21:10.624Z,98569.42
2019-03-22T22:23:39.946Z,98579.75
2019-03-22T22:26:09.379Z,98571.20
2019-03-22T22:28:37.698Z,98569.92
2019-03-22T22:31:06.360Z,98570.38
2019-03-22T22:33:35.652Z,98570.86
2019-03-22T22:36:04.157Z,98574.78
2019-03-22T22:38:32.548Z,98576.53
2019-03-22T22:41:00.939Z,98580.87
2019-03-22T22:43:30.257Z,98574.02
2019-03-22T22:45:58.643Z,98569.33
2019-03-22T22:48:27.030Z,98573.66
2019-03-22T22:50:55.435Z,98570.66
2019-03-22T22:53:23.817Z,98572.84
2019-03-22T22:55:52.203Z,98571.57
2019-03-22T22:58:20.593Z,98573.28
2019-03-22T23:00:49.151Z,98567.76
2019-03-22T23:03:17.613Z,98570.36
2019-03-22T23:05:46.004Z,98566.52
2019-03-22T23:08:14.388Z,98566.53
2019-03-22T23:10:42.780Z,98572.55
2019-03-22T23:13:11.199Z,98570.44
2019-03-22T23:15:39.602Z,98572.56
2019-03-22T23:18:07.981Z,98577.70
2019-03-22T23:20:36.375Z,98574.30
2019-03-22T23:23:04.772Z,98581.22
2019-03-22T23:25:33.157Z,98581.25
2019-03-22T23:28:01.558Z,98580.85
2019-03-22T23:30:29.944Z,98580.88
2019-03-22T23:32:58.351Z,98584.36
2019-03-22T23:35:26.763Z,98580.51
2019-03-22T23:37:55.148Z,98580.52
2019-03-22T23:40:23.544Z,98580.09
2019-03-22T23:42:51.927Z,98585.25
2019-03-22T23:45:20.320Z,98586.98
2019-03-22T23:47:48.863Z,98583.14
2019-03-22T23:50:17.255Z,98589.59
2019-03-22T23:52:45.635Z,98584.47
2019-03-22T23:55:14.093Z,98584.92
2019-03-22T23:57:42.418Z,98582.80
